sensor_id;sensor_type;location;lat;lon;timestamp;P1;durP1;ratioP1;P2;durP2;ratioP2
4023;SDS011;2026;51.002;13.668;2023-02-07T00:00:59;38.97;;;18.50;;
4023;SDS011;2026;51.002;13.668;2023-02-07T00:06:08;40.73;;;19.83;;
4023;SDS011;2026;51.002;13.668;2023-02-07T00:11:14;33.87;;;19.50;;
4023;SDS011;2026;51.002;13.668;2023-02-07T00:16:20;33.13;;;17.53;;
4023;SDS011;2026;51.002;13.668;2023-02-07T00:21:27;37.03;;;18.40;;
4023;SDS011;2026;51.002;13.668;2023-02-07T00:26:31;30.60;;;17.93;;
4023;SDS011;2026;51.002;13.668;2023-02-07T00:31:34;39.70;;;18.80;;
4023;SDS011;2026;51.002;13.668;2023-02-07T00:36:39;38.30;;;18.60;;
4023;SDS011;2026;51.002;13.668;2023-02-07T00:41:43;28.70;;;16.90;;
4023;SDS011;2026;51.002;13.668;2023-02-07T00:46:46;32.93;;;18.10;;
4023;SDS011;2026;51.002;13.668;2023-02-07T00:51:51;29.87;;;16.43;;
4023;SDS011;2026;51.002;13.668;2023-02-07T00:56:54;28.40;;;17.37;;
4023;SDS011;2026;51.002;13.668;2023-02-07T01:01:57;30.93;;;16.90;;
4023;SDS011;2026;51.002;13.668;2023-02-07T01:07:02;38.53;;;18.30;;
4023;SDS011;2026;51.002;13.668;2023-02-07T01:12:05;27.77;;;15.87;;
4023;SDS011;2026;51.002;13.668;2023-02-07T01:17:08;33.70;;;17.20;;
4023;SDS011;2026;51.002;13.668;2023-02-07T01:22:12;27.40;;;16.07;;
4023;SDS011;2026;51.002;13.668;2023-02-07T01:27:15;30.67;;;15.97;;
4023;SDS011;2026;51.002;13.668;2023-02-07T01:32:18;28.60;;;15.23;;
4023;SDS011;2026;51.002;13.668;2023-02-07T01:37:22;31.50;;;15.30;;
4023;SDS011;2026;51.002;13.668;2023-02-07T01:42:26;33.53;;;15.97;;
4023;SDS011;2026;51.002;13.668;2023-02-07T01:47:30;27.37;;;15.33;;
4023;SDS011;2026;51.002;13.668;2023-02-07T01:52:36;31.13;;;14.87;;
4023;SDS011;2026;51.002;13.668;2023-02-07T01:57:43;30.30;;;16.13;;
4023;SDS011;2026;51.002;13.668;2023-02-07T02:02:46;24.53;;;14.50;;
4023;SDS011;2026;51.002;13.668;2023-02-07T02:07:51;32.50;;;15.73;;
4023;SDS011;2026;51.002;13.668;2023-02-07T02:13:05;26.43;;;14.47;;
4023;SDS011;2026;51.002;13.668;2023-02-07T02:18:22;28.43;;;14.33;;
4023;SDS011;2026;51.002;13.668;2023-02-07T02:23:40;25.10;;;14.00;;
4023;SDS011;2026;51.002;13.668;2023-02-07T02:34:28;22.47;;;12.60;;
4023;SDS011;2026;51.002;13.668;2023-02-07T02:39:38;24.47;;;14.37;;
4023;SDS011;2026;51.002;13.668;2023-02-07T02:44:46;26.60;;;13.60;;
4023;SDS011;2026;51.002;13.668;2023-02-07T02:49:55;27.70;;;13.93;;
4023;SDS011;2026;51.002;13.668;2023-02-07T02:54:59;26.63;;;14.17;;
4023;SDS011;2026;51.002;13.668;2023-02-07T03:00:10;31.90;;;14.77;;
4023;SDS011;2026;51.002;13.668;2023-02-07T03:05:35;25.23;;;13.57;;
4023;SDS011;2026;51.002;13.668;2023-02-07T03:10:49;24.03;;;14.60;;
4023;SDS011;2026;51.002;13.668;2023-02-07T03:16:02;23.97;;;12.63;;
4023;SDS011;2026;51.002;13.668;2023-02-07T03:21:16;26.03;;;13.63;;
4023;SDS011;2026;51.002;13.668;2023-02-07T03:26:25;27.77;;;12.67;;
4023;SDS011;2026;51.002;13.668;2023-02-07T03:31:29;24.83;;;13.63;;
4023;SDS011;2026;51.002;13.668;2023-02-07T03:36:36;24.53;;;13.60;;
4023;SDS011;2026;51.002;13.668;2023-02-07T03:41:45;26.50;;;13.70;;
4023;SDS011;2026;51.002;13.668;2023-02-07T03:46:54;29.00;;;14.53;;
4023;SDS011;2026;51.002;13.668;2023-02-07T03:51:58;23.97;;;13.17;;
4023;SDS011;2026;51.002;13.668;2023-02-07T03:57:02;24.70;;;14.27;;
4023;SDS011;2026;51.002;13.668;2023-02-07T04:02:05;27.97;;;14.80;;
4023;SDS011;2026;51.002;13.668;2023-02-07T04:07:10;32.10;;;15.57;;
4023;SDS011;2026;51.002;13.668;2023-02-07T04:12:13;31.07;;;15.53;;
4023;SDS011;2026;51.002;13.668;2023-02-07T04:17:16;28.10;;;14.10;;
4023;SDS011;2026;51.002;13.668;2023-02-07T04:22:20;24.23;;;14.60;;
4023;SDS011;2026;51.002;13.668;2023-02-07T04:27:23;24.30;;;13.97;;
4023;SDS011;2026;51.002;13.668;2023-02-07T04:32:26;28.13;;;14.00;;
4023;SDS011;2026;51.002;13.668;2023-02-07T04:37:31;24.40;;;12.47;;
4023;SDS011;2026;51.002;13.668;2023-02-07T04:42:34;28.07;;;13.93;;
4023;SDS011;2026;51.002;13.668;2023-02-07T04:47:36;26.40;;;13.10;;
4023;SDS011;2026;51.002;13.668;2023-02-07T04:52:41;26.87;;;12.73;;
4023;SDS011;2026;51.002;13.668;2023-02-07T04:57:44;29.37;;;13.50;;
4023;SDS011;2026;51.002;13.668;2023-02-07T05:02:47;25.67;;;13.90;;
4023;SDS011;2026;51.002;13.668;2023-02-07T05:07:52;30.43;;;13.57;;
4023;SDS011;2026;51.002;13.668;2023-02-07T05:12:55;30.00;;;13.77;;
4023;SDS011;2026;51.002;13.668;2023-02-07T05:17:58;31.93;;;15.20;;
4023;SDS011;2026;51.002;13.668;2023-02-07T05:23:02;25.90;;;13.33;;
4023;SDS011;2026;51.002;13.668;2023-02-07T05:28:05;30.53;;;15.83;;
4023;SDS011;2026;51.002;13.668;2023-02-07T05:33:08;33.20;;;16.20;;
4023;SDS011;2026;51.002;13.668;2023-02-07T05:38:13;29.03;;;17.00;;
4023;SDS011;2026;51.002;13.668;2023-02-07T05:43:18;32.73;;;15.90;;
4023;SDS011;2026;51.002;13.668;2023-02-07T05:48:21;30.93;;;15.47;;
4023;SDS011;2026;51.002;13.668;2023-02-07T05:53:25;28.50;;;15.13;;
4023;SDS011;2026;51.002;13.668;2023-02-07T05:58:28;25.83;;;13.60;;
4023;SDS011;2026;51.002;13.668;2023-02-07T06:03:31;30.83;;;13.97;;
4023;SDS011;2026;51.002;13.668;2023-02-07T06:08:36;27.00;;;14.67;;
4023;SDS011;2026;51.002;13.668;2023-02-07T06:13:39;27.17;;;14.37;;
4023;SDS011;2026;51.002;13.668;2023-02-07T06:18:42;26.27;;;13.30;;
4023;SDS011;2026;51.002;13.668;2023-02-07T06:23:46;30.80;;;14.17;;
4023;SDS011;2026;51.002;13.668;2023-02-07T06:28:50;27.53;;;12.83;;
4023;SDS011;2026;51.002;13.668;2023-02-07T06:33:53;29.20;;;14.00;;
4023;SDS011;2026;51.002;13.668;2023-02-07T06:38:57;28.30;;;14.70;;
4023;SDS011;2026;51.002;13.668;2023-02-07T06:44:00;26.67;;;15.00;;
4023;SDS011;2026;51.002;13.668;2023-02-07T06:49:03;37.10;;;19.27;;
4023;SDS011;2026;51.002;13.668;2023-02-07T06:54:07;32.53;;;19.23;;
4023;SDS011;2026;51.002;13.668;2023-02-07T06:59:10;35.47;;;17.23;;
4023;SDS011;2026;51.002;13.668;2023-02-07T07:04:13;33.77;;;16.07;;
4023;SDS011;2026;51.002;13.668;2023-02-07T07:09:17;26.70;;;14.43;;
4023;SDS011;2026;51.002;13.668;2023-02-07T07:14:20;25.87;;;14.93;;
4023;SDS011;2026;51.002;13.668;2023-02-07T07:19:23;33.33;;;18.30;;
4023;SDS011;2026;51.002;13.668;2023-02-07T07:24:28;32.57;;;15.70;;
4023;SDS011;2026;51.002;13.668;2023-02-07T07:29:31;32.67;;;15.53;;
4023;SDS011;2026;51.002;13.668;2023-02-07T07:34:34;31.90;;;15.80;;
4023;SDS011;2026;51.002;13.668;2023-02-07T07:39:38;32.70;;;17.37;;
4023;SDS011;2026;51.002;13.668;2023-02-07T07:44:41;30.70;;;15.77;;
4023;SDS011;2026;51.002;13.668;2023-02-07T07:49:44;25.73;;;15.73;;
4023;SDS011;2026;51.002;13.668;2023-02-07T07:54:50;31.77;;;16.80;;
4023;SDS011;2026;51.002;13.668;2023-02-07T07:59:53;28.90;;;15.77;;
4023;SDS011;2026;51.002;13.668;2023-02-07T08:04:56;31.97;;;16.50;;
4023;SDS011;2026;51.002;13.668;2023-02-07T08:10:01;36.70;;;18.83;;
4023;SDS011;2026;51.002;13.668;2023-02-07T08:15:04;45.60;;;23.57;;
4023;SDS011;2026;51.002;13.668;2023-02-07T08:20:09;34.43;;;18.20;;
4023;SDS011;2026;51.002;13.668;2023-02-07T08:25:15;34.50;;;16.57;;
4023;SDS011;2026;51.002;13.668;2023-02-07T08:30:18;30.77;;;16.33;;
4023;SDS011;2026;51.002;13.668;2023-02-07T08:35:21;35.80;;;20.37;;
4023;SDS011;2026;51.002;13.668;2023-02-07T08:40:26;37.83;;;21.80;;
4023;SDS011;2026;51.002;13.668;2023-02-07T08:45:29;36.60;;;19.80;;
4023;SDS011;2026;51.002;13.668;2023-02-07T08:50:31;36.37;;;18.50;;
4023;SDS011;2026;51.002;13.668;2023-02-07T08:55:38;30.57;;;18.50;;
4023;SDS011;2026;51.002;13.668;2023-02-07T09:00:41;29.17;;;16.77;;
4023;SDS011;2026;51.002;13.668;2023-02-07T09:05:44;31.70;;;18.10;;
4023;SDS011;2026;51.002;13.668;2023-02-07T09:10:49;29.63;;;16.60;;
4023;SDS011;2026;51.002;13.668;2023-02-07T09:15:52;29.43;;;16.57;;
4023;SDS011;2026;51.002;13.668;2023-02-07T09:20:56;34.53;;;19.50;;
4023;SDS011;2026;51.002;13.668;2023-02-07T09:26:01;37.37;;;20.90;;
4023;SDS011;2026;51.002;13.668;2023-02-07T09:31:08;39.80;;;19.13;;
4023;SDS011;2026;51.002;13.668;2023-02-07T09:36:19;36.73;;;20.30;;
4023;SDS011;2026;51.002;13.668;2023-02-07T09:41:28;31.17;;;17.77;;
4023;SDS011;2026;51.002;13.668;2023-02-07T09:46:38;27.60;;;15.33;;
4023;SDS011;2026;51.002;13.668;2023-02-07T09:51:45;31.20;;;16.50;;
4023;SDS011;2026;51.002;13.668;2023-02-07T09:56:52;30.47;;;15.80;;
4023;SDS011;2026;51.002;13.668;2023-02-07T10:01:59;26.40;;;13.93;;
4023;SDS011;2026;51.002;13.668;2023-02-07T10:07:15;23.63;;;13.10;;
4023;SDS011;2026;51.002;13.668;2023-02-07T10:12:31;25.70;;;12.73;;
4023;SDS011;2026;51.002;13.668;2023-02-07T10:17:58;24.27;;;14.87;;
4023;SDS011;2026;51.002;13.668;2023-02-07T10:23:16;24.50;;;13.93;;
4023;SDS011;2026;51.002;13.668;2023-02-07T10:28:38;28.20;;;15.63;;
4023;SDS011;2026;51.002;13.668;2023-02-07T10:33:59;24.53;;;15.07;;
4023;SDS011;2026;51.002;13.668;2023-02-07T10:39:06;28.73;;;17.50;;
4023;SDS011;2026;51.002;13.668;2023-02-07T10:44:18;28.00;;;16.00;;
4023;SDS011;2026;51.002;13.668;2023-02-07T10:49:22;32.37;;;18.30;;
4023;SDS011;2026;51.002;13.668;2023-02-07T10:54:28;25.93;;;15.50;;
4023;SDS011;2026;51.002;13.668;2023-02-07T10:59:36;30.50;;;17.77;;
4023;SDS011;2026;51.002;13.668;2023-02-07T11:04:45;32.23;;;17.97;;
4023;SDS011;2026;51.002;13.668;2023-02-07T11:09:48;28.20;;;15.80;;
4023;SDS011;2026;51.002;13.668;2023-02-07T11:14:59;35.50;;;16.33;;
4023;SDS011;2026;51.002;13.668;2023-02-07T11:20:04;28.20;;;16.20;;
4023;SDS011;2026;51.002;13.668;2023-02-07T11:25:09;29.10;;;16.17;;
4023;SDS011;2026;51.002;13.668;2023-02-07T11:30:15;42.20;;;19.53;;
4023;SDS011;2026;51.002;13.668;2023-02-07T11:35:20;35.07;;;18.40;;
4023;SDS011;2026;51.002;13.668;2023-02-07T11:40:25;31.03;;;18.20;;
4023;SDS011;2026;51.002;13.668;2023-02-07T11:45:31;33.13;;;17.90;;
4023;SDS011;2026;51.002;13.668;2023-02-07T11:50:36;33.30;;;18.27;;
4023;SDS011;2026;51.002;13.668;2023-02-07T11:55:42;33.37;;;17.67;;
4023;SDS011;2026;51.002;13.668;2023-02-07T12:00:46;38.03;;;17.33;;
4023;SDS011;2026;51.002;13.668;2023-02-07T12:05:50;38.20;;;18.40;;
4023;SDS011;2026;51.002;13.668;2023-02-07T12:10:57;34.17;;;17.40;;
4023;SDS011;2026;51.002;13.668;2023-02-07T12:16:04;30.03;;;16.90;;
4023;SDS011;2026;51.002;13.668;2023-02-07T12:21:13;34.97;;;18.57;;
4023;SDS011;2026;51.002;13.668;2023-02-07T12:26:22;33.33;;;17.63;;
4023;SDS011;2026;51.002;13.668;2023-02-07T12:31:31;41.40;;;17.33;;
4023;SDS011;2026;51.002;13.668;2023-02-07T12:36:45;27.27;;;14.70;;
4023;SDS011;2026;51.002;13.668;2023-02-07T12:41:56;28.00;;;15.30;;
4023;SDS011;2026;51.002;13.668;2023-02-07T12:47:06;28.33;;;15.83;;
4023;SDS011;2026;51.002;13.668;2023-02-07T12:52:19;28.57;;;15.53;;
4023;SDS011;2026;51.002;13.668;2023-02-07T12:57:36;28.27;;;15.40;;
4023;SDS011;2026;51.002;13.668;2023-02-07T13:02:52;31.70;;;16.50;;
4023;SDS011;2026;51.002;13.668;2023-02-07T13:08:03;31.00;;;17.67;;
4023;SDS011;2026;51.002;13.668;2023-02-07T13:13:16;27.73;;;16.20;;
4023;SDS011;2026;51.002;13.668;2023-02-07T13:18:27;29.00;;;17.10;;
4023;SDS011;2026;51.002;13.668;2023-02-07T13:23:39;32.77;;;17.40;;
4023;SDS011;2026;51.002;13.668;2023-02-07T13:28:46;31.00;;;17.70;;
4023;SDS011;2026;51.002;13.668;2023-02-07T13:33:54;33.33;;;17.77;;
4023;SDS011;2026;51.002;13.668;2023-02-07T13:39:00;27.50;;;16.53;;
4023;SDS011;2026;51.002;13.668;2023-02-07T13:44:11;28.53;;;17.13;;
4023;SDS011;2026;51.002;13.668;2023-02-07T13:49:23;36.00;;;17.73;;
4023;SDS011;2026;51.002;13.668;2023-02-07T13:54:36;36.03;;;17.13;;
4023;SDS011;2026;51.002;13.668;2023-02-07T14:00:04;32.13;;;16.67;;
4023;SDS011;2026;51.002;13.668;2023-02-07T14:05:21;31.63;;;17.90;;
4023;SDS011;2026;51.002;13.668;2023-02-07T14:10:43;35.80;;;20.47;;
4023;SDS011;2026;51.002;13.668;2023-02-07T14:15:53;33.87;;;21.10;;
4023;SDS011;2026;51.002;13.668;2023-02-07T14:21:00;35.40;;;20.57;;
4023;SDS011;2026;51.002;13.668;2023-02-07T14:26:09;39.77;;;22.40;;
4023;SDS011;2026;51.002;13.668;2023-02-07T14:31:54;35.97;;;22.17;;
4023;SDS011;2026;51.002;13.668;2023-02-07T14:37:00;36.83;;;21.77;;
4023;SDS011;2026;51.002;13.668;2023-02-07T14:42:22;33.00;;;19.90;;
4023;SDS011;2026;51.002;13.668;2023-02-07T14:47:26;35.53;;;20.37;;
4023;SDS011;2026;51.002;13.668;2023-02-07T14:52:34;38.17;;;18.73;;
4023;SDS011;2026;51.002;13.668;2023-02-07T14:57:43;32.80;;;19.30;;
4023;SDS011;2026;51.002;13.668;2023-02-07T15:02:52;30.10;;;18.90;;
4023;SDS011;2026;51.002;13.668;2023-02-07T15:08:07;31.37;;;17.90;;
4023;SDS011;2026;51.002;13.668;2023-02-07T15:13:17;34.77;;;19.23;;
4023;SDS011;2026;51.002;13.668;2023-02-07T15:18:26;33.97;;;20.03;;
4023;SDS011;2026;51.002;13.668;2023-02-07T15:23:33;110.83;;;50.43;;
4023;SDS011;2026;51.002;13.668;2023-02-07T15:28:36;39.50;;;21.80;;
4023;SDS011;2026;51.002;13.668;2023-02-07T15:33:39;32.70;;;20.00;;
4023;SDS011;2026;51.002;13.668;2023-02-07T15:38:51;33.80;;;19.70;;
4023;SDS011;2026;51.002;13.668;2023-02-07T15:43:56;37.10;;;21.77;;
4023;SDS011;2026;51.002;13.668;2023-02-07T15:49:00;39.80;;;24.87;;
4023;SDS011;2026;51.002;13.668;2023-02-07T15:54:04;39.83;;;22.20;;
4023;SDS011;2026;51.002;13.668;2023-02-07T15:59:08;46.17;;;25.23;;
4023;SDS011;2026;51.002;13.668;2023-02-07T16:04:13;37.70;;;22.27;;
4023;SDS011;2026;51.002;13.668;2023-02-07T16:14:45;39.17;;;22.30;;
4023;SDS011;2026;51.002;13.668;2023-02-07T16:19:49;60.90;;;30.13;;
4023;SDS011;2026;51.002;13.668;2023-02-07T16:24:52;49.60;;;27.17;;
4023;SDS011;2026;51.002;13.668;2023-02-07T16:29:56;50.10;;;28.77;;
4023;SDS011;2026;51.002;13.668;2023-02-07T16:35:00;47.70;;;28.20;;
4023;SDS011;2026;51.002;13.668;2023-02-07T16:40:04;49.30;;;27.70;;
4023;SDS011;2026;51.002;13.668;2023-02-07T16:45:13;47.07;;;27.07;;
4023;SDS011;2026;51.002;13.668;2023-02-07T16:50:39;51.50;;;26.90;;
4023;SDS011;2026;51.002;13.668;2023-02-07T16:55:42;66.27;;;35.80;;
4023;SDS011;2026;51.002;13.668;2023-02-07T17:00:47;63.40;;;34.80;;
4023;SDS011;2026;51.002;13.668;2023-02-07T17:05:50;56.33;;;30.47;;
4023;SDS011;2026;51.002;13.668;2023-02-07T17:10:55;48.23;;;29.30;;
4023;SDS011;2026;51.002;13.668;2023-02-07T17:16:01;45.97;;;27.53;;
4023;SDS011;2026;51.002;13.668;2023-02-07T17:21:05;46.53;;;25.90;;
4023;SDS011;2026;51.002;13.668;2023-02-07T17:26:10;44.93;;;24.67;;
4023;SDS011;2026;51.002;13.668;2023-02-07T17:31:22;43.07;;;24.73;;
4023;SDS011;2026;51.002;13.668;2023-02-07T17:36:25;44.50;;;25.83;;
4023;SDS011;2026;51.002;13.668;2023-02-07T17:41:29;45.40;;;25.97;;
4023;SDS011;2026;51.002;13.668;2023-02-07T17:46:35;49.60;;;28.17;;
4023;SDS011;2026;51.002;13.668;2023-02-07T17:51:39;46.53;;;24.20;;
4023;SDS011;2026;51.002;13.668;2023-02-07T17:56:43;40.77;;;22.83;;
4023;SDS011;2026;51.002;13.668;2023-02-07T18:01:47;50.93;;;25.90;;
4023;SDS011;2026;51.002;13.668;2023-02-07T18:06:50;45.47;;;23.53;;
4023;SDS011;2026;51.002;13.668;2023-02-07T18:11:53;37.57;;;23.57;;
4023;SDS011;2026;51.002;13.668;2023-02-07T18:16:57;41.73;;;22.90;;
4023;SDS011;2026;51.002;13.668;2023-02-07T18:22:00;41.80;;;23.70;;
4023;SDS011;2026;51.002;13.668;2023-02-07T18:27:03;48.57;;;23.70;;
4023;SDS011;2026;51.002;13.668;2023-02-07T18:32:08;57.60;;;27.97;;
4023;SDS011;2026;51.002;13.668;2023-02-07T18:37:12;66.17;;;32.90;;
4023;SDS011;2026;51.002;13.668;2023-02-07T18:42:15;49.37;;;25.50;;
4023;SDS011;2026;51.002;13.668;2023-02-07T18:47:19;47.83;;;26.57;;
4023;SDS011;2026;51.002;13.668;2023-02-07T18:52:22;49.00;;;24.40;;
4023;SDS011;2026;51.002;13.668;2023-02-07T18:57:25;51.00;;;25.63;;
4023;SDS011;2026;51.002;13.668;2023-02-07T19:02:29;55.67;;;27.73;;
4023;SDS011;2026;51.002;13.668;2023-02-07T19:07:32;54.03;;;29.63;;
4023;SDS011;2026;51.002;13.668;2023-02-07T19:12:35;51.03;;;28.13;;
4023;SDS011;2026;51.002;13.668;2023-02-07T19:17:40;45.23;;;25.07;;
4023;SDS011;2026;51.002;13.668;2023-02-07T19:22:43;66.83;;;31.53;;
4023;SDS011;2026;51.002;13.668;2023-02-07T19:27:45;47.77;;;26.53;;
4023;SDS011;2026;51.002;13.668;2023-02-07T19:32:50;49.53;;;26.40;;
4023;SDS011;2026;51.002;13.668;2023-02-07T19:37:53;48.43;;;24.50;;
4023;SDS011;2026;51.002;13.668;2023-02-07T19:42:56;44.27;;;25.07;;
4023;SDS011;2026;51.002;13.668;2023-02-07T19:48:00;45.63;;;24.20;;
4023;SDS011;2026;51.002;13.668;2023-02-07T19:53:03;50.40;;;26.10;;
4023;SDS011;2026;51.002;13.668;2023-02-07T19:58:06;49.17;;;26.70;;
4023;SDS011;2026;51.002;13.668;2023-02-07T20:03:11;51.87;;;24.90;;
4023;SDS011;2026;51.002;13.668;2023-02-07T20:08:14;54.27;;;28.30;;
4023;SDS011;2026;51.002;13.668;2023-02-07T20:13:17;52.00;;;27.17;;
4023;SDS011;2026;51.002;13.668;2023-02-07T20:18:21;56.90;;;29.23;;
4023;SDS011;2026;51.002;13.668;2023-02-07T20:23:24;56.93;;;30.93;;
4023;SDS011;2026;51.002;13.668;2023-02-07T20:28:27;64.17;;;34.03;;
4023;SDS011;2026;51.002;13.668;2023-02-07T20:33:32;64.83;;;34.20;;
4023;SDS011;2026;51.002;13.668;2023-02-07T20:38:35;76.80;;;38.37;;
4023;SDS011;2026;51.002;13.668;2023-02-07T20:43:38;68.07;;;35.20;;
4023;SDS011;2026;51.002;13.668;2023-02-07T20:48:44;72.73;;;38.07;;
4023;SDS011;2026;51.002;13.668;2023-02-07T20:53:47;71.80;;;35.33;;
4023;SDS011;2026;51.002;13.668;2023-02-07T20:58:50;75.80;;;38.50;;
4023;SDS011;2026;51.002;13.668;2023-02-07T21:03:56;78.30;;;41.10;;
4023;SDS011;2026;51.002;13.668;2023-02-07T21:09:01;73.43;;;37.90;;
4023;SDS011;2026;51.002;13.668;2023-02-07T21:14:06;69.77;;;36.17;;
4023;SDS011;2026;51.002;13.668;2023-02-07T21:19:13;66.83;;;35.10;;
4023;SDS011;2026;51.002;13.668;2023-02-07T21:24:17;72.60;;;36.90;;
4023;SDS011;2026;51.002;13.668;2023-02-07T21:29:21;72.80;;;37.13;;
4023;SDS011;2026;51.002;13.668;2023-02-07T21:34:26;64.33;;;34.17;;
4023;SDS011;2026;51.002;13.668;2023-02-07T21:39:29;66.20;;;33.77;;
4023;SDS011;2026;51.002;13.668;2023-02-07T21:44:32;72.37;;;36.17;;
4023;SDS011;2026;51.002;13.668;2023-02-07T21:49:36;65.20;;;34.27;;
4023;SDS011;2026;51.002;13.668;2023-02-07T21:54:39;68.50;;;34.67;;
4023;SDS011;2026;51.002;13.668;2023-02-07T21:59:42;81.67;;;38.30;;
4023;SDS011;2026;51.002;13.668;2023-02-07T22:04:48;83.50;;;37.60;;
4023;SDS011;2026;51.002;13.668;2023-02-07T22:09:51;116.20;;;47.90;;
4023;SDS011;2026;51.002;13.668;2023-02-07T22:14:54;91.20;;;39.13;;
4023;SDS011;2026;51.002;13.668;2023-02-07T22:19:58;74.00;;;33.93;;
4023;SDS011;2026;51.002;13.668;2023-02-07T22:25:01;76.67;;;35.47;;
4023;SDS011;2026;51.002;13.668;2023-02-07T22:30:04;73.70;;;34.20;;
4023;SDS011;2026;51.002;13.668;2023-02-07T22:35:09;68.13;;;32.47;;
4023;SDS011;2026;51.002;13.668;2023-02-07T22:40:12;67.67;;;35.80;;
4023;SDS011;2026;51.002;13.668;2023-02-07T22:45:15;66.90;;;33.47;;
4023;SDS011;2026;51.002;13.668;2023-02-07T22:50:19;72.57;;;35.27;;
4023;SDS011;2026;51.002;13.668;2023-02-07T22:55:22;73.17;;;34.00;;
4023;SDS011;2026;51.002;13.668;2023-02-07T23:00:25;63.23;;;30.57;;
4023;SDS011;2026;51.002;13.668;2023-02-07T23:05:30;58.83;;;29.57;;
4023;SDS011;2026;51.002;13.668;2023-02-07T23:10:33;61.67;;;30.10;;
4023;SDS011;2026;51.002;13.668;2023-02-07T23:15:36;59.03;;;27.83;;
4023;SDS011;2026;51.002;13.668;2023-02-07T23:20:42;64.70;;;31.07;;
4023;SDS011;2026;51.002;13.668;2023-02-07T23:25:45;53.27;;;26.77;;
4023;SDS011;2026;51.002;13.668;2023-02-07T23:30:48;54.67;;;27.77;;
4023;SDS011;2026;51.002;13.668;2023-02-07T23:35:53;57.97;;;30.03;;
4023;SDS011;2026;51.002;13.668;2023-02-07T23:40:56;60.67;;;28.30;;
4023;SDS011;2026;51.002;13.668;2023-02-07T23:45:59;63.17;;;29.70;;
4023;SDS011;2026;51.002;13.668;2023-02-07T23:51:03;56.37;;;30.17;;
4023;SDS011;2026;51.002;13.668;2023-02-07T23:56:07;50.67;;;28.33;;
